sensor_id;sensor_type;location;lat;lon;timestamp;temperature;humidity
36416;DHT22;22447;44.530;18.620;2023-12-28T00:01:37;1.80;99.90
36416;DHT22;22447;44.530;18.620;2023-12-28T00:04:03;1.90;99.90
36416;DHT22;22447;44.530;18.620;2023-12-28T00:06:28;1.90;99.90
36416;DHT22;22447;44.530;18.620;2023-12-28T00:08:54;1.90;99.90
36416;DHT22;22447;44.530;18.620;2023-12-28T00:11:20;1.90;99.90
36416;DHT22;22447;44.530;18.620;2023-12-28T00:13:46;1.90;99.90
36416;DHT22;22447;44.530;18.620;2023-12-28T00:16:12;1.90;99.90
36416;DHT22;22447;44.530;18.620;2023-12-28T00:18:38;1.90;99.90
36416;DHT22;22447;44.530;18.620;2023-12-28T00:21:04;1.90;99.90
36416;DHT22;22447;44.530;18.620;2023-12-28T00:23:29;2.00;99.90
36416;DHT22;22447;44.530;18.620;2023-12-28T00:25:55;2.10;99.90
36416;DHT22;22447;44.530;18.620;2023-12-28T00:28:21;2.10;99.90
36416;DHT22;22447;44.530;18.620;2023-12-28T00:30:47;2.10;99.90
36416;DHT22;22447;44.530;18.620;2023-12-28T00:33:13;2.20;99.90
36416;DHT22;22447;44.530;18.620;2023-12-28T00:35:39;2.10;99.90
36416;DHT22;22447;44.530;18.620;2023-12-28T00:38:05;2.10;99.90
36416;DHT22;22447;44.530;18.620;2023-12-28T00:40:31;2.00;99.90
36416;DHT22;22447;44.530;18.620;2023-12-28T00:42:56;2.00;99.90
36416;DHT22;22447;44.530;18.620;2023-12-28T00:45:23;1.90;99.90
36416;DHT22;22447;44.530;18.620;2023-12-28T00:47:49;1.80;99.90
36416;DHT22;22447;44.530;18.620;2023-12-28T00:50:18;1.90;99.90
36416;DHT22;22447;44.530;18.620;2023-12-28T00:52:43;1.80;99.90
36416;DHT22;22447;44.530;18.620;2023-12-28T00:55:10;1.70;99.90
36416;DHT22;22447;44.530;18.620;2023-12-28T00:57:36;1.80;99.90
36416;DHT22;22447;44.530;18.620;2023-12-28T01:00:02;1.80;99.90
36416;DHT22;22447;44.530;18.620;2023-12-28T01:02:28;1.70;99.90
36416;DHT22;22447;44.530;18.620;2023-12-28T01:04:54;1.80;99.90
36416;DHT22;22447;44.530;18.620;2023-12-28T01:07:20;1.80;99.90
36416;DHT22;22447;44.530;18.620;2023-12-28T01:09:46;1.70;99.90
36416;DHT22;22447;44.530;18.620;2023-12-28T01:12:12;1.90;99.90
36416;DHT22;22447;44.530;18.620;2023-12-28T01:14:38;1.90;99.90
36416;DHT22;22447;44.530;18.620;2023-12-28T01:17:03;1.70;99.90
36416;DHT22;22447;44.530;18.620;2023-12-28T01:19:29;1.70;99.90
36416;DHT22;22447;44.530;18.620;2023-12-28T01:21:55;1.80;99.90
36416;DHT22;22447;44.530;18.620;2023-12-28T01:24:21;1.90;99.90
36416;DHT22;22447;44.530;18.620;2023-12-28T01:26:47;1.80;99.90
36416;DHT22;22447;44.530;18.620;2023-12-28T01:29:13;1.80;99.90
36416;DHT22;22447;44.530;18.620;2023-12-28T01:31:39;1.70;99.90
36416;DHT22;22447;44.530;18.620;2023-12-28T01:34:05;1.50;99.90
36416;DHT22;22447;44.530;18.620;2023-12-28T01:36:33;1.40;99.90
36416;DHT22;22447;44.530;18.620;2023-12-28T01:38:59;1.50;99.90
36416;DHT22;22447;44.530;18.620;2023-12-28T01:41:25;1.50;99.90
36416;DHT22;22447;44.530;18.620;2023-12-28T01:43:51;1.30;99.90
36416;DHT22;22447;44.530;18.620;2023-12-28T01:46:19;1.20;99.90
36416;DHT22;22447;44.530;18.620;2023-12-28T01:48:49;1.20;99.90
36416;DHT22;22447;44.530;18.620;2023-12-28T01:51:15;1.20;99.90
36416;DHT22;22447;44.530;18.620;2023-12-28T01:53:45;1.20;99.90
36416;DHT22;22447;44.530;18.620;2023-12-28T01:56:13;0.90;99.90
36416;DHT22;22447;44.530;18.620;2023-12-28T01:58:43;0.80;99.90
36416;DHT22;22447;44.530;18.620;2023-12-28T02:01:10;0.80;99.90
36416;DHT22;22447;44.530;18.620;2023-12-28T02:03:36;0.70;99.90
36416;DHT22;22447;44.530;18.620;2023-12-28T02:06:03;0.80;99.90
36416;DHT22;22447;44.530;18.620;2023-12-28T02:08:30;0.80;99.90
36416;DHT22;22447;44.530;18.620;2023-12-28T02:10:56;0.70;99.90
36416;DHT22;22447;44.530;18.620;2023-12-28T02:13:22;0.70;99.90
36416;DHT22;22447;44.530;18.620;2023-12-28T02:18:46;0.80;99.90
36416;DHT22;22447;44.530;18.620;2023-12-28T02:21:13;0.70;99.90
36416;DHT22;22447;44.530;18.620;2023-12-28T02:23:49;0.60;99.90
36416;DHT22;22447;44.530;18.620;2023-12-28T02:26:18;0.70;99.90
36416;DHT22;22447;44.530;18.620;2023-12-28T02:28:45;0.60;99.90
36416;DHT22;22447;44.530;18.620;2023-12-28T02:31:28;0.60;99.90
36416;DHT22;22447;44.530;18.620;2023-12-28T02:34:06;0.50;99.90
36416;DHT22;22447;44.530;18.620;2023-12-28T02:36:35;0.60;99.90
36416;DHT22;22447;44.530;18.620;2023-12-28T02:39:03;0.60;99.90
36416;DHT22;22447;44.530;18.620;2023-12-28T02:41:31;0.60;99.90
36416;DHT22;22447;44.530;18.620;2023-12-28T02:43:57;0.50;99.90
36416;DHT22;22447;44.530;18.620;2023-12-28T02:46:24;0.40;99.90
36416;DHT22;22447;44.530;18.620;2023-12-28T02:48:50;0.40;99.90
36416;DHT22;22447;44.530;18.620;2023-12-28T02:51:16;0.40;99.90
36416;DHT22;22447;44.530;18.620;2023-12-28T02:53:42;0.50;99.90
36416;DHT22;22447;44.530;18.620;2023-12-28T02:56:08;0.50;99.90
36416;DHT22;22447;44.530;18.620;2023-12-28T02:58:34;0.40;99.90
36416;DHT22;22447;44.530;18.620;2023-12-28T03:00:59;0.40;99.90
36416;DHT22;22447;44.530;18.620;2023-12-28T03:03:25;0.40;99.90
36416;DHT22;22447;44.530;18.620;2023-12-28T03:05:51;0.30;99.90
36416;DHT22;22447;44.530;18.620;2023-12-28T03:08:17;0.30;99.90
36416;DHT22;22447;44.530;18.620;2023-12-28T03:10:43;0.30;99.90
36416;DHT22;22447;44.530;18.620;2023-12-28T03:13:09;0.50;99.90
36416;DHT22;22447;44.530;18.620;2023-12-28T03:15:34;0.50;99.90
36416;DHT22;22447;44.530;18.620;2023-12-28T03:18:00;0.50;99.90
36416;DHT22;22447;44.530;18.620;2023-12-28T03:20:26;0.50;99.90
36416;DHT22;22447;44.530;18.620;2023-12-28T03:22:52;0.50;99.90
36416;DHT22;22447;44.530;18.620;2023-12-28T03:25:20;0.40;99.90
36416;DHT22;22447;44.530;18.620;2023-12-28T03:27:45;0.40;99.90
36416;DHT22;22447;44.530;18.620;2023-12-28T03:30:11;0.30;99.90
36416;DHT22;22447;44.530;18.620;2023-12-28T03:32:38;0.30;99.90
36416;DHT22;22447;44.530;18.620;2023-12-28T03:35:04;0.30;99.90
36416;DHT22;22447;44.530;18.620;2023-12-28T03:37:31;0.30;99.90
36416;DHT22;22447;44.530;18.620;2023-12-28T03:39:57;0.20;99.90
36416;DHT22;22447;44.530;18.620;2023-12-28T03:42:22;0.30;99.90
36416;DHT22;22447;44.530;18.620;2023-12-28T03:44:48;0.40;99.90
36416;DHT22;22447;44.530;18.620;2023-12-28T03:47:14;0.50;99.90
36416;DHT22;22447;44.530;18.620;2023-12-28T03:49:41;0.50;99.90
36416;DHT22;22447;44.530;18.620;2023-12-28T03:52:07;0.50;99.90
36416;DHT22;22447;44.530;18.620;2023-12-28T03:54:33;0.60;99.90
36416;DHT22;22447;44.530;18.620;2023-12-28T03:56:58;0.50;99.90
36416;DHT22;22447;44.530;18.620;2023-12-28T03:59:24;0.60;99.90
36416;DHT22;22447;44.530;18.620;2023-12-28T04:01:50;0.70;99.90
36416;DHT22;22447;44.530;18.620;2023-12-28T04:04:16;0.40;99.90
36416;DHT22;22447;44.530;18.620;2023-12-28T04:06:42;0.30;99.90
36416;DHT22;22447;44.530;18.620;2023-12-28T04:09:12;0.20;99.90
36416;DHT22;22447;44.530;18.620;2023-12-28T04:11:38;0.20;99.90
36416;DHT22;22447;44.530;18.620;2023-12-28T04:14:03;0.10;99.90
36416;DHT22;22447;44.530;18.620;2023-12-28T04:16:29;0.10;99.90
36416;DHT22;22447;44.530;18.620;2023-12-28T04:18:55;0.10;99.90
36416;DHT22;22447;44.530;18.620;2023-12-28T04:21:21;0.20;99.90
36416;DHT22;22447;44.530;18.620;2023-12-28T04:23:47;0.20;99.90
36416;DHT22;22447;44.530;18.620;2023-12-28T04:26:13;0.20;99.90
36416;DHT22;22447;44.530;18.620;2023-12-28T04:28:39;0.20;99.90
36416;DHT22;22447;44.530;18.620;2023-12-28T04:31:06;0.00;99.90
36416;DHT22;22447;44.530;18.620;2023-12-28T04:33:32;-0.10;99.90
36416;DHT22;22447;44.530;18.620;2023-12-28T04:36:02;0.00;99.90
36416;DHT22;22447;44.530;18.620;2023-12-28T04:38:31;0.00;99.90
36416;DHT22;22447;44.530;18.620;2023-12-28T04:40:59;0.10;99.90
36416;DHT22;22447;44.530;18.620;2023-12-28T04:43:25;0.20;99.90
36416;DHT22;22447;44.530;18.620;2023-12-28T04:45:51;0.20;99.90
36416;DHT22;22447;44.530;18.620;2023-12-28T04:48:18;0.10;99.90
36416;DHT22;22447;44.530;18.620;2023-12-28T04:50:49;0.10;99.90
36416;DHT22;22447;44.530;18.620;2023-12-28T04:53:15;0.10;99.90
36416;DHT22;22447;44.530;18.620;2023-12-28T04:55:41;0.20;99.90
36416;DHT22;22447;44.530;18.620;2023-12-28T04:58:07;0.10;99.90
36416;DHT22;22447;44.530;18.620;2023-12-28T05:00:33;0.10;99.90
36416;DHT22;22447;44.530;18.620;2023-12-28T05:02:59;0.10;99.90
36416;DHT22;22447;44.530;18.620;2023-12-28T05:05:25;0.10;99.90
36416;DHT22;22447;44.530;18.620;2023-12-28T05:07:51;0.00;99.90
36416;DHT22;22447;44.530;18.620;2023-12-28T05:10:17;0.00;99.90
36416;DHT22;22447;44.530;18.620;2023-12-28T05:12:43;0.00;99.90
36416;DHT22;22447;44.530;18.620;2023-12-28T05:15:09;0.00;99.90
36416;DHT22;22447;44.530;18.620;2023-12-28T05:17:35;0.00;99.90
36416;DHT22;22447;44.530;18.620;2023-12-28T05:20:01;0.00;99.90
36416;DHT22;22447;44.530;18.620;2023-12-28T05:22:28;-0.10;99.90
36416;DHT22;22447;44.530;18.620;2023-12-28T05:24:54;-0.10;99.90
36416;DHT22;22447;44.530;18.620;2023-12-28T05:27:20;-0.20;99.90
36416;DHT22;22447;44.530;18.620;2023-12-28T05:29:45;0.00;99.90
36416;DHT22;22447;44.530;18.620;2023-12-28T05:32:11;0.00;99.90
36416;DHT22;22447;44.530;18.620;2023-12-28T05:34:37;0.10;99.90
36416;DHT22;22447;44.530;18.620;2023-12-28T05:37:03;0.20;99.90
36416;DHT22;22447;44.530;18.620;2023-12-28T05:39:29;0.20;99.90
36416;DHT22;22447;44.530;18.620;2023-12-28T05:41:55;0.30;99.90
36416;DHT22;22447;44.530;18.620;2023-12-28T05:44:20;0.30;99.90
36416;DHT22;22447;44.530;18.620;2023-12-28T05:46:46;0.30;99.90
36416;DHT22;22447;44.530;18.620;2023-12-28T05:49:12;0.30;99.90
36416;DHT22;22447;44.530;18.620;2023-12-28T05:51:39;0.40;99.90
36416;DHT22;22447;44.530;18.620;2023-12-28T05:54:08;0.40;99.90
36416;DHT22;22447;44.530;18.620;2023-12-28T05:56:34;0.50;99.90
36416;DHT22;22447;44.530;18.620;2023-12-28T05:59:00;0.40;99.90
36416;DHT22;22447;44.530;18.620;2023-12-28T06:01:26;0.40;99.90
36416;DHT22;22447;44.530;18.620;2023-12-28T06:03:53;0.40;99.90
36416;DHT22;22447;44.530;18.620;2023-12-28T06:06:19;0.40;99.90
36416;DHT22;22447;44.530;18.620;2023-12-28T06:08:46;0.40;99.90
36416;DHT22;22447;44.530;18.620;2023-12-28T06:11:12;0.40;99.90
36416;DHT22;22447;44.530;18.620;2023-12-28T06:13:38;0.30;99.90
36416;DHT22;22447;44.530;18.620;2023-12-28T06:16:04;0.30;99.90
36416;DHT22;22447;44.530;18.620;2023-12-28T06:18:30;0.30;99.90
36416;DHT22;22447;44.530;18.620;2023-12-28T06:20:55;0.30;99.90
36416;DHT22;22447;44.530;18.620;2023-12-28T06:23:21;0.30;99.90
36416;DHT22;22447;44.530;18.620;2023-12-28T06:25:47;0.20;99.90
36416;DHT22;22447;44.530;18.620;2023-12-28T06:28:13;0.30;99.90
36416;DHT22;22447;44.530;18.620;2023-12-28T06:30:39;0.50;99.90
36416;DHT22;22447;44.530;18.620;2023-12-28T06:33:05;0.40;99.90
36416;DHT22;22447;44.530;18.620;2023-12-28T06:35:31;0.50;99.90
36416;DHT22;22447;44.530;18.620;2023-12-28T06:37:57;0.50;99.90
36416;DHT22;22447;44.530;18.620;2023-12-28T06:40:23;0.40;99.90
36416;DHT22;22447;44.530;18.620;2023-12-28T06:42:48;0.40;99.90
36416;DHT22;22447;44.530;18.620;2023-12-28T06:45:15;0.40;99.90
36416;DHT22;22447;44.530;18.620;2023-12-28T06:47:40;0.40;99.90
36416;DHT22;22447;44.530;18.620;2023-12-28T06:50:07;0.40;99.90
36416;DHT22;22447;44.530;18.620;2023-12-28T06:52:32;0.50;99.90
36416;DHT22;22447;44.530;18.620;2023-12-28T06:54:58;0.70;99.90
36416;DHT22;22447;44.530;18.620;2023-12-28T06:57:24;0.50;99.90
36416;DHT22;22447;44.530;18.620;2023-12-28T06:59:52;0.50;99.90
36416;DHT22;22447;44.530;18.620;2023-12-28T07:02:17;0.50;99.90
36416;DHT22;22447;44.530;18.620;2023-12-28T07:04:43;0.40;99.90
36416;DHT22;22447;44.530;18.620;2023-12-28T07:07:09;0.30;99.90
36416;DHT22;22447;44.530;18.620;2023-12-28T07:09:35;0.30;99.90
36416;DHT22;22447;44.530;18.620;2023-12-28T07:12:01;0.40;99.90
36416;DHT22;22447;44.530;18.620;2023-12-28T07:14:27;0.40;99.90
36416;DHT22;22447;44.530;18.620;2023-12-28T07:16:53;0.50;99.90
36416;DHT22;22447;44.530;18.620;2023-12-28T07:19:19;0.50;99.90
36416;DHT22;22447;44.530;18.620;2023-12-28T07:21:45;0.70;99.90
36416;DHT22;22447;44.530;18.620;2023-12-28T07:24:11;0.80;99.90
36416;DHT22;22447;44.530;18.620;2023-12-28T07:26:37;0.90;99.90
36416;DHT22;22447;44.530;18.620;2023-12-28T07:29:03;0.90;99.90
36416;DHT22;22447;44.530;18.620;2023-12-28T07:31:29;1.00;99.90
36416;DHT22;22447;44.530;18.620;2023-12-28T07:33:57;1.10;99.90
36416;DHT22;22447;44.530;18.620;2023-12-28T07:36:24;1.00;99.90
36416;DHT22;22447;44.530;18.620;2023-12-28T07:38:50;1.00;99.90
36416;DHT22;22447;44.530;18.620;2023-12-28T07:41:16;1.10;99.90
36416;DHT22;22447;44.530;18.620;2023-12-28T07:43:42;1.20;99.90
36416;DHT22;22447;44.530;18.620;2023-12-28T07:46:08;1.00;99.90
36416;DHT22;22447;44.530;18.620;2023-12-28T07:48:33;1.10;99.90
36416;DHT22;22447;44.530;18.620;2023-12-28T07:51:04;1.20;99.90
36416;DHT22;22447;44.530;18.620;2023-12-28T07:53:31;1.30;99.90
36416;DHT22;22447;44.530;18.620;2023-12-28T07:55:56;1.30;99.90
36416;DHT22;22447;44.530;18.620;2023-12-28T07:58:22;1.30;99.90
36416;DHT22;22447;44.530;18.620;2023-12-28T08:00:48;1.30;99.90
36416;DHT22;22447;44.530;18.620;2023-12-28T08:03:14;1.30;99.90
36416;DHT22;22447;44.530;18.620;2023-12-28T08:05:43;1.40;99.90
36416;DHT22;22447;44.530;18.620;2023-12-28T08:08:09;1.40;99.90
36416;DHT22;22447;44.530;18.620;2023-12-28T08:10:35;1.50;99.90
36416;DHT22;22447;44.530;18.620;2023-12-28T08:13:00;1.50;99.90
36416;DHT22;22447;44.530;18.620;2023-12-28T08:15:26;1.40;99.90
36416;DHT22;22447;44.530;18.620;2023-12-28T08:17:52;1.60;99.90
36416;DHT22;22447;44.530;18.620;2023-12-28T08:20:18;1.80;99.90
36416;DHT22;22447;44.530;18.620;2023-12-28T08:22:44;2.00;99.90
36416;DHT22;22447;44.530;18.620;2023-12-28T08:25:10;2.00;99.90
36416;DHT22;22447;44.530;18.620;2023-12-28T08:27:36;1.90;99.90
36416;DHT22;22447;44.530;18.620;2023-12-28T08:30:02;1.90;99.90
36416;DHT22;22447;44.530;18.620;2023-12-28T08:32:28;2.00;99.90
36416;DHT22;22447;44.530;18.620;2023-12-28T08:34:54;2.00;99.90
36416;DHT22;22447;44.530;18.620;2023-12-28T08:37:20;2.10;99.90
36416;DHT22;22447;44.530;18.620;2023-12-28T08:39:46;2.10;99.90
36416;DHT22;22447;44.530;18.620;2023-12-28T08:42:12;2.20;99.90
36416;DHT22;22447;44.530;18.620;2023-12-28T08:44:37;2.20;99.90
36416;DHT22;22447;44.530;18.620;2023-12-28T08:47:04;2.30;99.90
36416;DHT22;22447;44.530;18.620;2023-12-28T08:49:29;2.50;99.90
36416;DHT22;22447;44.530;18.620;2023-12-28T08:51:55;2.50;99.90
36416;DHT22;22447;44.530;18.620;2023-12-28T08:54:21;2.50;99.90
36416;DHT22;22447;44.530;18.620;2023-12-28T08:56:47;2.50;99.90
36416;DHT22;22447;44.530;18.620;2023-12-28T08:59:14;2.40;99.90
36416;DHT22;22447;44.530;18.620;2023-12-28T09:01:39;2.60;99.90
36416;DHT22;22447;44.530;18.620;2023-12-28T09:04:05;2.80;99.90
36416;DHT22;22447;44.530;18.620;2023-12-28T09:06:31;2.80;99.90
36416;DHT22;22447;44.530;18.620;2023-12-28T09:08:57;2.90;99.90
36416;DHT22;22447;44.530;18.620;2023-12-28T09:11:23;2.70;99.90
36416;DHT22;22447;44.530;18.620;2023-12-28T09:13:49;2.80;99.90
36416;DHT22;22447;44.530;18.620;2023-12-28T09:16:15;2.80;99.90
36416;DHT22;22447;44.530;18.620;2023-12-28T09:18:41;2.80;99.90
36416;DHT22;22447;44.530;18.620;2023-12-28T09:21:08;2.90;99.90
36416;DHT22;22447;44.530;18.620;2023-12-28T09:23:35;3.00;99.90
36416;DHT22;22447;44.530;18.620;2023-12-28T09:26:02;3.10;99.90
36416;DHT22;22447;44.530;18.620;2023-12-28T09:28:31;3.10;99.90
36416;DHT22;22447;44.530;18.620;2023-12-28T09:30:57;3.20;99.90
36416;DHT22;22447;44.530;18.620;2023-12-28T09:33:23;3.40;99.90
36416;DHT22;22447;44.530;18.620;2023-12-28T09:35:49;3.60;99.90
36416;DHT22;22447;44.530;18.620;2023-12-28T09:38:15;3.70;99.90
36416;DHT22;22447;44.530;18.620;2023-12-28T09:40:42;3.80;99.90
36416;DHT22;22447;44.530;18.620;2023-12-28T09:45:54;3.80;99.90
36416;DHT22;22447;44.530;18.620;2023-12-28T09:48:21;3.70;99.90
36416;DHT22;22447;44.530;18.620;2023-12-28T09:50:54;3.70;99.90
36416;DHT22;22447;44.530;18.620;2023-12-28T09:53:23;3.80;99.90
36416;DHT22;22447;44.530;18.620;2023-12-28T09:55:49;3.90;99.90
36416;DHT22;22447;44.530;18.620;2023-12-28T09:58:18;3.90;99.90
36416;DHT22;22447;44.530;18.620;2023-12-28T10:00:46;4.10;99.90
36416;DHT22;22447;44.530;18.620;2023-12-28T10:03:16;4.10;99.90
36416;DHT22;22447;44.530;18.620;2023-12-28T10:05:43;4.30;99.90
36416;DHT22;22447;44.530;18.620;2023-12-28T10:08:16;4.40;99.90
36416;DHT22;22447;44.530;18.620;2023-12-28T10:10:43;4.30;99.90
36416;DHT22;22447;44.530;18.620;2023-12-28T10:13:10;4.50;99.90
36416;DHT22;22447;44.530;18.620;2023-12-28T10:15:36;4.50;99.90
36416;DHT22;22447;44.530;18.620;2023-12-28T10:18:04;4.50;99.90
36416;DHT22;22447;44.530;18.620;2023-12-28T10:20:30;4.60;99.90
36416;DHT22;22447;44.530;18.620;2023-12-28T10:22:58;4.70;99.90
36416;DHT22;22447;44.530;18.620;2023-12-28T10:25:24;4.70;99.90
36416;DHT22;22447;44.530;18.620;2023-12-28T10:27:53;4.70;99.90
36416;DHT22;22447;44.530;18.620;2023-12-28T10:30:22;4.80;99.90
36416;DHT22;22447;44.530;18.620;2023-12-28T10:32:48;4.90;99.90
36416;DHT22;22447;44.530;18.620;2023-12-28T10:35:14;5.00;99.90
36416;DHT22;22447;44.530;18.620;2023-12-28T10:37:41;5.20;99.90
36416;DHT22;22447;44.530;18.620;2023-12-28T10:40:13;5.40;99.90
36416;DHT22;22447;44.530;18.620;2023-12-28T10:42:54;5.50;99.90
36416;DHT22;22447;44.530;18.620;2023-12-28T10:45:24;5.60;99.90
36416;DHT22;22447;44.530;18.620;2023-12-28T10:48:09;5.70;99.90
36416;DHT22;22447;44.530;18.620;2023-12-28T10:53:30;5.60;99.90
36416;DHT22;22447;44.530;18.620;2023-12-28T10:58:49;5.80;99.90
36416;DHT22;22447;44.530;18.620;2023-12-28T11:01:24;6.00;99.90
36416;DHT22;22447;44.530;18.620;2023-12-28T11:06:36;6.10;99.90
36416;DHT22;22447;44.530;18.620;2023-12-28T11:09:04;6.20;99.90
36416;DHT22;22447;44.530;18.620;2023-12-28T11:11:33;6.50;99.90
36416;DHT22;22447;44.530;18.620;2023-12-28T11:14:00;6.80;99.90
36416;DHT22;22447;44.530;18.620;2023-12-28T11:16:27;7.30;99.90
36416;DHT22;22447;44.530;18.620;2023-12-28T11:18:54;7.70;99.90
36416;DHT22;22447;44.530;18.620;2023-12-28T11:21:22;8.10;99.90
36416;DHT22;22447;44.530;18.620;2023-12-28T11:23:49;8.50;99.90
36416;DHT22;22447;44.530;18.620;2023-12-28T11:26:19;9.20;99.90
36416;DHT22;22447;44.530;18.620;2023-12-28T11:28:46;9.60;99.90
36416;DHT22;22447;44.530;18.620;2023-12-28T11:31:15;10.50;99.90
36416;DHT22;22447;44.530;18.620;2023-12-28T11:33:50;11.00;99.00
36416;DHT22;22447;44.530;18.620;2023-12-28T11:36:41;11.50;96.80
36416;DHT22;22447;44.530;18.620;2023-12-28T11:39:10;12.20;93.50
36416;DHT22;22447;44.530;18.620;2023-12-28T11:41:36;13.10;92.80
36416;DHT22;22447;44.530;18.620;2023-12-28T11:44:05;13.40;90.90
36416;DHT22;22447;44.530;18.620;2023-12-28T11:46:32;13.60;89.90
36416;DHT22;22447;44.530;18.620;2023-12-28T11:49:08;13.90;88.70
36416;DHT22;22447;44.530;18.620;2023-12-28T11:51:38;14.00;85.60
36416;DHT22;22447;44.530;18.620;2023-12-28T11:54:05;14.10;83.00
36416;DHT22;22447;44.530;18.620;2023-12-28T11:56:31;14.10;80.90
36416;DHT22;22447;44.530;18.620;2023-12-28T11:59:00;13.70;81.80
36416;DHT22;22447;44.530;18.620;2023-12-28T12:01:26;14.10;79.90
36416;DHT22;22447;44.530;18.620;2023-12-28T12:03:53;13.50;81.00
36416;DHT22;22447;44.530;18.620;2023-12-28T12:06:19;13.70;82.20
36416;DHT22;22447;44.530;18.620;2023-12-28T12:08:46;14.30;79.70
36416;DHT22;22447;44.530;18.620;2023-12-28T12:11:12;14.50;78.70
36416;DHT22;22447;44.530;18.620;2023-12-28T12:13:38;14.70;76.30
36416;DHT22;22447;44.530;18.620;2023-12-28T12:16:04;14.90;75.50
36416;DHT22;22447;44.530;18.620;2023-12-28T12:18:34;15.50;72.40
36416;DHT22;22447;44.530;18.620;2023-12-28T12:21:02;15.80;71.10
36416;DHT22;22447;44.530;18.620;2023-12-28T12:23:28;15.90;69.70
36416;DHT22;22447;44.530;18.620;2023-12-28T12:25:54;15.80;70.20
36416;DHT22;22447;44.530;18.620;2023-12-28T12:31:45;17.00;64.50
36416;DHT22;22447;44.530;18.620;2023-12-28T12:34:16;16.90;64.80
36416;DHT22;22447;44.530;18.620;2023-12-28T12:36:43;16.90;64.30
36416;DHT22;22447;44.530;18.620;2023-12-28T12:39:13;16.70;63.70
36416;DHT22;22447;44.530;18.620;2023-12-28T12:41:39;17.30;60.80
36416;DHT22;22447;44.530;18.620;2023-12-28T12:44:05;16.70;62.90
36416;DHT22;22447;44.530;18.620;2023-12-28T12:46:31;17.00;61.90
36416;DHT22;22447;44.530;18.620;2023-12-28T12:48:58;17.40;59.70
36416;DHT22;22447;44.530;18.620;2023-12-28T12:51:28;17.00;59.40
36416;DHT22;22447;44.530;18.620;2023-12-28T12:54:00;16.70;60.00
36416;DHT22;22447;44.530;18.620;2023-12-28T12:56:29;16.80;59.10
36416;DHT22;22447;44.530;18.620;2023-12-28T12:58:55;16.40;60.20
36416;DHT22;22447;44.530;18.620;2023-12-28T13:01:25;16.70;60.00
36416;DHT22;22447;44.530;18.620;2023-12-28T13:03:51;16.30;59.60
36416;DHT22;22447;44.530;18.620;2023-12-28T13:06:17;16.70;59.60
36416;DHT22;22447;44.530;18.620;2023-12-28T13:08:43;16.70;59.70
36416;DHT22;22447;44.530;18.620;2023-12-28T13:11:09;16.40;60.30
36416;DHT22;22447;44.530;18.620;2023-12-28T13:13:36;16.70;59.40
36416;DHT22;22447;44.530;18.620;2023-12-28T13:16:02;16.40;59.90
36416;DHT22;22447;44.530;18.620;2023-12-28T13:18:28;16.70;61.20
36416;DHT22;22447;44.530;18.620;2023-12-28T13:20:54;16.50;60.80
36416;DHT22;22447;44.530;18.620;2023-12-28T13:23:20;16.70;61.00
36416;DHT22;22447;44.530;18.620;2023-12-28T13:25:46;16.80;59.40
36416;DHT22;22447;44.530;18.620;2023-12-28T13:28:12;17.10;58.60
36416;DHT22;22447;44.530;18.620;2023-12-28T13:30:39;17.00;59.10
36416;DHT22;22447;44.530;18.620;2023-12-28T13:33:05;16.80;59.00
36416;DHT22;22447;44.530;18.620;2023-12-28T13:35:31;16.60;59.40
36416;DHT22;22447;44.530;18.620;2023-12-28T13:38:00;16.70;58.00
36416;DHT22;22447;44.530;18.620;2023-12-28T13:40:29;16.30;60.40
36416;DHT22;22447;44.530;18.620;2023-12-28T13:42:56;16.40;59.90
36416;DHT22;22447;44.530;18.620;2023-12-28T13:45:22;16.00;60.70
36416;DHT22;22447;44.530;18.620;2023-12-28T13:47:48;15.90;61.10
36416;DHT22;22447;44.530;18.620;2023-12-28T13:50:14;16.00;61.60
36416;DHT22;22447;44.530;18.620;2023-12-28T13:52:40;16.00;61.00
36416;DHT22;22447;44.530;18.620;2023-12-28T13:55:06;15.30;63.80
36416;DHT22;22447;44.530;18.620;2023-12-28T13:57:32;15.20;63.60
36416;DHT22;22447;44.530;18.620;2023-12-28T13:59:58;15.20;63.20
36416;DHT22;22447;44.530;18.620;2023-12-28T14:02:27;15.30;63.30
36416;DHT22;22447;44.530;18.620;2023-12-28T14:04:52;14.70;64.70
36416;DHT22;22447;44.530;18.620;2023-12-28T14:07:22;14.60;65.40
36416;DHT22;22447;44.530;18.620;2023-12-28T14:09:48;14.40;66.50
36416;DHT22;22447;44.530;18.620;2023-12-28T14:12:13;14.50;66.40
36416;DHT22;22447;44.530;18.620;2023-12-28T14:14:39;14.60;66.40
36416;DHT22;22447;44.530;18.620;2023-12-28T14:17:05;14.40;66.20
36416;DHT22;22447;44.530;18.620;2023-12-28T14:19:31;14.00;67.80
36416;DHT22;22447;44.530;18.620;2023-12-28T14:21:58;13.50;68.80
36416;DHT22;22447;44.530;18.620;2023-12-28T14:24:25;13.10;71.00
36416;DHT22;22447;44.530;18.620;2023-12-28T14:26:53;12.80;72.70
36416;DHT22;22447;44.530;18.620;2023-12-28T14:29:23;12.60;73.90
36416;DHT22;22447;44.530;18.620;2023-12-28T14:31:49;12.20;75.50
36416;DHT22;22447;44.530;18.620;2023-12-28T14:34:15;12.10;76.30
36416;DHT22;22447;44.530;18.620;2023-12-28T14:36:41;11.60;78.10
36416;DHT22;22447;44.530;18.620;2023-12-28T14:39:12;11.40;79.90
36416;DHT22;22447;44.530;18.620;2023-12-28T14:41:37;11.00;81.60
36416;DHT22;22447;44.530;18.620;2023-12-28T14:44:04;10.60;84.30
36416;DHT22;22447;44.530;18.620;2023-12-28T14:46:30;10.60;86.70
36416;DHT22;22447;44.530;18.620;2023-12-28T14:48:56;10.30;87.80
36416;DHT22;22447;44.530;18.620;2023-12-28T14:51:22;10.10;89.00
36416;DHT22;22447;44.530;18.620;2023-12-28T14:53:48;9.80;90.10
36416;DHT22;22447;44.530;18.620;2023-12-28T14:56:15;9.60;90.70
36416;DHT22;22447;44.530;18.620;2023-12-28T14:58:41;9.40;91.10
36416;DHT22;22447;44.530;18.620;2023-12-28T15:01:14;9.00;92.20
36416;DHT22;22447;44.530;18.620;2023-12-28T15:03:40;8.90;93.00
36416;DHT22;22447;44.530;18.620;2023-12-28T15:06:06;8.80;94.20
36416;DHT22;22447;44.530;18.620;2023-12-28T15:08:32;8.60;94.60
36416;DHT22;22447;44.530;18.620;2023-12-28T15:10:58;8.40;96.10
36416;DHT22;22447;44.530;18.620;2023-12-28T15:13:26;8.20;96.90
36416;DHT22;22447;44.530;18.620;2023-12-28T15:15:52;7.90;98.00
36416;DHT22;22447;44.530;18.620;2023-12-28T15:18:18;7.80;98.90
36416;DHT22;22447;44.530;18.620;2023-12-28T15:20:46;7.60;99.30
36416;DHT22;22447;44.530;18.620;2023-12-28T15:23:13;7.40;99.90
36416;DHT22;22447;44.530;18.620;2023-12-28T15:25:40;7.30;99.90
36416;DHT22;22447;44.530;18.620;2023-12-28T15:28:06;7.10;99.90
36416;DHT22;22447;44.530;18.620;2023-12-28T15:30:32;6.90;99.90
36416;DHT22;22447;44.530;18.620;2023-12-28T15:32:58;6.70;99.90
36416;DHT22;22447;44.530;18.620;2023-12-28T15:35:24;6.60;99.90
36416;DHT22;22447;44.530;18.620;2023-12-28T15:37:50;6.50;99.90
36416;DHT22;22447;44.530;18.620;2023-12-28T15:40:16;6.40;99.90
36416;DHT22;22447;44.530;18.620;2023-12-28T15:42:42;6.30;99.90